Time;durP1;ratioP1;P1;durP2;ratioP2;P2;SDS_P1;SDS_P2;PMS_P1;PMS_P2;Temp;Humidity;BMP_temperature;BMP_pressure;BME280_temperature;BME280_humidity;BME280_pressure;Samples;Min_cycle;Max_cycle;Signal;HPM_P1;HPM_P2
2021/06/22 05:59:47;;;;;;;4.13;1.90;;;;;;;;;;5016137;28;20042;-77
2021/06/22 06:02:13;;;;;;;2.28;1.20;;;;;;;;;;5015739;28;20030;-76
2021/06/22 06:04:39;;;;;;;4.10;1.38;;;;;;;;;;5049857;22;20054;-77
2021/06/22 06:07:06;;;;;;;4.93;1.77;;;;;;;;;;5028715;28;20037;-77
2021/06/22 06:09:33;;;;;;;7.07;1.80;;;;;;;;;;5017500;28;20026;-76
2021/06/22 06:11:59;;;;;;;2.53;0.93;;;;;;;;;;5015588;28;20443;-76
2021/06/22 06:14:25;;;;;;;2.15;1.25;;;;;;;;;;5015839;28;20445;-77
2021/06/22 06:16:51;;;;;;;2.30;1.10;;;;;;;;;;5015900;28;20022;-77
2021/06/22 06:19:17;;;;;;;1.85;0.95;;;;;;;;;;5013460;28;20029;-77
2021/06/22 06:21:45;;;;;;;1.65;1.13;;;;;;;;;;5016483;28;20452;-76
2021/06/22 06:24:11;;;;;;;5.82;1.60;;;;;;;;;;5013626;28;20030;-76
2021/06/22 06:27:22;;;;;;;1.55;1.23;;;;;;;;;;5013582;28;20026;-75
2021/06/22 06:29:43;;;;;;;3.83;1.42;;;;;;;;;;5011826;28;20057;-77
2021/06/22 06:32:09;;;;;;;1.77;1.33;;;;;;;;;;5021424;28;20079;-77
2021/06/22 06:34:35;;;;;;;2.50;1.27;;;;;;;;;;5028686;28;20030;-79
2021/06/22 06:37:01;;;;;;;2.72;1.50;;;;;;;;;;5036492;28;20037;-79
2021/06/22 06:39:27;;;;;;;2.95;1.50;;;;;;;;;;5030927;28;20022;-79
2021/06/22 06:41:53;;;;;;;3.55;1.38;;;;;;;;;;5025896;28;20026;-79
2021/06/22 06:44:19;;;;;;;2.35;1.30;;;;;;;;;;5024718;28;20045;-80
2021/06/22 06:46:45;;;;;;;2.03;1.10;;;;;;;;;;5023929;28;20045;-79
2021/06/22 06:49:11;;;;;;;2.63;1.27;;;;;;;;;;5027384;28;20025;-79
2021/06/22 06:51:37;;;;;;;1.23;1.02;;;;;;;;;;5023837;28;20034;-79
2021/06/22 06:54:04;;;;;;;2.38;1.50;;;;;;;;;;5030184;28;20053;-80
2021/06/22 06:56:30;;;;;;;1.90;1.52;;;;;;;;;;5031216;28;20085;-79
2021/06/22 06:58:56;;;;;;;3.70;1.55;;;;;;;;;;5029017;28;20053;-80
2021/06/22 07:01:22;;;;;;;2.05;1.38;;;;;;;;;;5027005;28;20069;-80
2021/06/22 07:03:48;;;;;;;1.90;1.50;;;;;;;;;;5028742;28;20057;-80
2021/06/22 07:06:15;;;;;;;2.50;1.05;;;;;;;;;;5035573;28;20057;-80
2021/06/22 07:08:41;;;;;;;2.95;1.33;;;;;;;;;;5042661;28;20024;-79
2021/06/22 07:11:08;;;;;;;1.83;1.13;;;;;;;;;;5047131;28;20026;-77
2021/06/22 07:13:37;;;;;;;4.07;1.45;;;;;;;;;;5031988;28;20045;-79
2021/06/22 07:16:03;;;;;;;3.70;2.00;;;;;;;;;;5028568;28;20030;-80
2021/06/22 07:18:31;;;;;;;3.40;1.30;;;;;;;;;;5028311;28;20026;-80
2021/06/22 07:20:57;;;;;;;3.35;1.65;;;;;;;;;;5027731;28;20454;-81
2021/06/22 07:23:24;;;;;;;2.53;1.45;;;;;;;;;;5031963;28;20433;-78
2021/06/22 07:25:50;;;;;;;6.10;1.75;;;;;;;;;;5030871;28;20106;-79
2021/06/22 07:28:16;;;;;;;5.40;1.42;;;;;;;;;;5029564;28;20049;-79
2021/06/22 07:30:42;;;;;;;2.97;1.70;;;;;;;;;;5035969;28;20082;-77
2021/06/22 07:33:08;;;;;;;8.85;1.58;;;;;;;;;;5035798;28;20101;-79
2021/06/22 07:35:34;;;;;;;4.88;1.60;;;;;;;;;;5041959;28;20026;-79
2021/06/22 07:38:01;;;;;;;5.13;1.70;;;;;;;;;;5048163;28;20144;-78
2021/06/22 07:40:27;;;;;;;2.90;1.00;;;;;;;;;;5053747;28;20032;-80
2021/06/22 07:42:53;;;;;;;3.45;1.80;;;;;;;;;;5048718;28;20029;-79
2021/06/22 07:45:20;;;;;;;5.53;1.73;;;;;;;;;;5030725;28;20021;-79
2021/06/22 07:47:46;;;;;;;1.98;1.10;;;;;;;;;;5033182;28;20018;-79
2021/06/22 07:50:13;;;;;;;3.13;1.70;;;;;;;;;;5033121;28;20330;-79
2021/06/22 07:52:40;;;;;;;3.15;1.15;;;;;;;;;;5026853;28;20099;-79
2021/06/22 07:55:13;;;;;;;3.03;1.20;;;;;;;;;;5027295;28;20053;-81
2021/06/22 07:57:39;;;;;;;5.18;1.30;;;;;;;;;;5027314;28;20022;-79
2021/06/22 08:00:07;;;;;;;1.88;1.05;;;;;;;;;;5028499;28;20022;-79
2021/06/22 08:02:33;;;;;;;4.93;1.15;;;;;;;;;;5028733;28;20078;-78
2021/06/22 08:04:59;;;;;;;3.38;1.10;;;;;;;;;;5027260;28;20037;-78
2021/06/22 08:07:25;;;;;;;2.03;1.08;;;;;;;;;;5028798;28;20109;-78
2021/06/22 08:09:51;;;;;;;3.40;1.10;;;;;;;;;;5025340;28;20030;-77
2021/06/22 08:12:17;;;;;;;4.38;1.40;;;;;;;;;;5026451;28;20028;-77
2021/06/22 08:14:43;;;;;;;4.68;1.67;;;;;;;;;;5025533;28;20076;-78
2021/06/22 08:17:09;;;;;;;3.20;1.25;;;;;;;;;;5021897;28;20109;-77
2021/06/22 08:19:36;;;;;;;2.63;1.40;;;;;;;;;;5020496;28;20375;-77
2021/06/22 08:22:02;;;;;;;3.65;1.15;;;;;;;;;;5020237;28;20509;-78
2021/06/22 08:24:28;;;;;;;5.18;1.65;;;;;;;;;;5026319;28;20129;-78
2021/06/22 08:26:54;;;;;;;3.17;1.65;;;;;;;;;;5021910;28;20071;-76
2021/06/22 08:29:20;;;;;;;5.72;1.45;;;;;;;;;;5019965;28;20033;-76
2021/06/22 08:31:47;;;;;;;5.10;1.60;;;;;;;;;;5023039;28;20028;-77
2021/06/22 08:34:13;;;;;;;3.72;1.60;;;;;;;;;;5025182;28;20038;-78
2021/06/22 08:36:39;;;;;;;7.47;1.83;;;;;;;;;;5035107;28;20038;-78
2021/06/22 08:39:05;;;;;;;4.15;1.42;;;;;;;;;;5041790;28;20029;-77
2021/06/22 08:41:31;;;;;;;3.30;1.83;;;;;;;;;;5041014;28;20394;-77
2021/06/22 08:43:58;;;;;;;4.20;1.70;;;;;;;;;;5039031;28;20040;-77
2021/06/22 08:46:24;;;;;;;5.85;1.88;;;;;;;;;;5030312;28;20064;-77
2021/06/22 08:48:50;;;;;;;4.50;1.52;;;;;;;;;;5024438;28;20036;-77
2021/06/22 08:51:18;;;;;;;2.35;1.02;;;;;;;;;;5017778;28;20040;-77
2021/06/22 08:53:44;;;;;;;2.38;1.30;;;;;;;;;;5021128;28;20048;-78
2021/06/22 08:56:10;;;;;;;2.00;1.13;;;;;;;;;;5018643;28;20033;-79
2021/06/22 08:58:36;;;;;;;4.93;1.63;;;;;;;;;;5016251;28;20030;-78
2021/06/22 09:01:02;;;;;;;3.42;1.23;;;;;;;;;;5021932;28;20029;-77
2021/06/22 09:03:29;;;;;;;3.17;1.55;;;;;;;;;;5021436;28;20026;-77
2021/06/22 09:05:58;;;;;;;4.32;1.60;;;;;;;;;;5021254;28;20044;-77
2021/06/22 09:08:29;;;;;;;4.35;1.50;;;;;;;;;;5030411;28;20021;-79
2021/06/22 09:11:05;;;;;;;3.88;1.20;;;;;;;;;;5023636;28;20036;-78
2021/06/22 09:13:32;;;;;;;6.10;1.90;;;;;;;;;;5021586;28;20017;-78
2021/06/22 09:15:58;;;;;;;2.67;1.17;;;;;;;;;;5023992;28;20125;-78
2021/06/22 09:18:24;;;;;;;3.47;1.15;;;;;;;;;;5021857;28;20026;-77
2021/06/22 09:20:50;;;;;;;3.25;1.52;;;;;;;;;;5022785;28;20049;-80
2021/06/22 09:23:17;;;;;;;4.45;1.38;;;;;;;;;;5028005;28;20093;-81
2021/06/22 09:25:44;;;;;;;3.15;1.42;;;;;;;;;;5025446;28;20224;-79
2021/06/22 09:28:11;;;;;;;5.90;1.88;;;;;;;;;;5025501;28;20034;-80
2021/06/22 09:30:42;;;;;;;4.25;1.33;;;;;;;;;;5027242;28;20270;-80
2021/06/22 09:33:21;;;;;;;3.78;1.20;;;;;;;;;;5027210;28;20530;-81
2021/06/22 09:35:47;;;;;;;4.13;1.42;;;;;;;;;;5030295;28;20022;-81
2021/06/22 09:38:14;;;;;;;1.83;0.95;;;;;;;;;;5042763;28;20033;-79
2021/06/22 09:40:40;;;;;;;4.95;1.75;;;;;;;;;;5045123;28;20013;-81
2021/06/22 09:43:07;;;;;;;2.70;1.35;;;;;;;;;;5041801;28;20030;-78
2021/06/22 09:45:33;;;;;;;4.05;1.67;;;;;;;;;;5047655;28;20036;-78
2021/06/22 09:48:03;;;;;;;2.35;1.02;;;;;;;;;;5038948;28;20029;-80
2021/06/22 09:50:32;;;;;;;5.00;1.38;;;;;;;;;;5027546;28;20084;-80
2021/06/22 09:53:17;;;;;;;2.10;1.23;;;;;;;;;;5031684;28;20030;-79
2021/06/22 09:55:43;;;;;;;4.35;1.80;;;;;;;;;;5027156;28;20061;-78
2021/06/22 09:58:09;;;;;;;4.05;1.40;;;;;;;;;;5023462;28;20066;-79
2021/06/22 10:00:38;;;;;;;5.13;1.40;;;;;;;;;;5022197;28;20029;-78
2021/06/22 10:03:04;;;;;;;3.92;1.70;;;;;;;;;;5025931;28;20034;-78
2021/06/22 10:05:30;;;;;;;3.15;1.67;;;;;;;;;;5031372;28;20045;-79
2021/06/22 10:08:03;;;;;;;2.08;1.10;;;;;;;;;;5032130;28;20069;-79
2021/06/22 10:10:36;;;;;;;2.53;1.33;;;;;;;;;;5027234;28;20026;-79
2021/06/22 10:13:02;;;;;;;4.95;1.65;;;;;;;;;;5027532;28;20020;-80
2021/06/22 10:15:28;;;;;;;4.32;1.63;;;;;;;;;;5025877;28;20029;-78
2021/06/22 10:17:54;;;;;;;3.70;1.70;;;;;;;;;;5024985;28;20038;-77
2021/06/22 10:20:21;;;;;;;1.67;1.20;;;;;;;;;;5022741;28;20105;-78
2021/06/22 10:22:48;;;;;;;2.05;1.77;;;;;;;;;;5025648;28;20041;-78
2021/06/22 10:25:15;;;;;;;5.10;1.40;;;;;;;;;;5029648;28;20113;-79
2021/06/22 10:27:41;;;;;;;3.53;1.40;;;;;;;;;;5031513;28;20014;-78
2021/06/22 10:30:09;;;;;;;3.08;1.52;;;;;;;;;;5029646;28;20402;-78
2021/06/22 10:32:35;;;;;;;10.15;2.22;;;;;;;;;;5034807;28;20026;-77
2021/06/22 10:35:08;;;;;;;5.35;1.77;;;;;;;;;;5035672;28;20061;-77
2021/06/22 10:37:34;;;;;;;5.65;1.75;;;;;;;;;;5037967;28;20030;-78
2021/06/22 10:40:03;;;;;;;2.35;1.20;;;;;;;;;;5035180;28;20548;-76
2021/06/22 10:42:48;;;;;;;5.60;1.42;;;;;;;;;;5023629;28;20022;-77
2021/06/22 10:45:14;;;;;;;2.45;1.02;;;;;;;;;;5026790;28;20030;-79
2021/06/22 10:47:41;;;;;;;3.80;1.10;;;;;;;;;;5030945;28;20022;-79
2021/06/22 10:50:11;;;;;;;2.67;1.70;;;;;;;;;;5026603;28;20026;-78
2021/06/22 10:52:40;;;;;;;3.90;1.73;;;;;;;;;;5023283;28;20018;-78
2021/06/22 10:55:59;;;;;;;2.72;1.67;;;;;;;;;;5024593;28;20054;-78
2021/06/22 10:58:19;;;;;;;1.77;1.10;;;;;;;;;;5020962;28;20026;-78
2021/06/22 11:00:49;;;;;;;1.40;1.23;;;;;;;;;;5027101;28;20033;-78
2021/06/22 11:03:21;;;;;;;2.22;1.40;;;;;;;;;;5027738;28;20025;-80
2021/06/22 11:05:48;;;;;;;1.52;1.30;;;;;;;;;;5026471;28;20514;-77
2021/06/22 11:08:17;;;;;;;1.88;1.13;;;;;;;;;;5034421;28;20105;-77
2021/06/22 11:10:55;;;;;;;2.42;1.17;;;;;;;;;;5026485;28;20029;-79
2021/06/22 11:13:42;;;;;;;3.63;1.00;;;;;;;;;;5029295;28;20030;-79
2021/06/22 11:16:14;;;;;;;3.70;1.23;;;;;;;;;;5020040;28;20092;-78
2021/06/22 11:18:40;;;;;;;;;;;;;;;;;;5029349;28;20093;-79
2021/06/22 11:21:06;;;;;;;3.03;1.23;;;;;;;;;;5027464;28;19910;-78
2021/06/22 11:23:52;;;;;;;1.83;1.10;;;;;;;;;;5027445;28;20109;-78
2021/06/22 11:26:18;;;;;;;1.48;1.15;;;;;;;;;;5017063;28;20034;-79
2021/06/22 11:28:55;;;;;;;1.38;1.02;;;;;;;;;;5028264;28;20049;-77
2021/06/22 11:31:41;;;;;;;3.05;1.10;;;;;;;;;;5024054;28;20053;-79
2021/06/22 11:34:17;;;;;;;4.30;1.00;;;;;;;;;;5025034;28;20030;-78
2021/06/22 11:36:43;;;;;;;1.50;1.08;;;;;;;;;;5036593;28;20030;-78
2021/06/22 11:39:25;;;;;;;3.13;1.10;;;;;;;;;;5050247;28;20032;-79
2021/06/22 11:42:10;;;;;;;2.70;1.75;;;;;;;;;;5036643;28;20026;-79
2021/06/22 11:44:37;;;;;;;2.58;1.10;;;;;;;;;;5023992;28;20021;-79
2021/06/22 11:47:09;;;;;;;1.98;1.15;;;;;;;;;;5026710;28;20052;-79
2021/06/22 11:49:44;;;;;;;2.10;1.30;;;;;;;;;;5025187;28;20053;-82
2021/06/22 11:52:11;;;;;;;1.95;1.20;;;;;;;;;;5024827;28;20066;-78
2021/06/22 11:54:50;;;;;;;3.67;2.22;;;;;;;;;;5026367;28;20037;-78
2021/06/22 11:57:21;;;;;;;2.13;1.40;;;;;;;;;;5026013;28;20032;-78
2021/06/22 11:59:48;;;;;;;2.90;1.50;;;;;;;;;;5023987;28;20034;-80
2021/06/22 12:02:15;;;;;;;5.10;1.40;;;;;;;;;;5028574;28;20033;-77
2021/06/22 12:04:41;;;;;;;3.42;1.27;;;;;;;;;;5026522;28;20026;-79
2021/06/22 12:07:08;;;;;;;2.22;1.60;;;;;;;;;;5046796;23;20049;-77
2021/06/22 12:09:35;;;;;;;2.40;1.00;;;;;;;;;;5034760;28;20048;-77
2021/06/22 12:12:02;;;;;;;1.15;1.00;;;;;;;;;;5033689;28;20033;-78
2021/06/22 12:14:28;;;;;;;1.80;1.13;;;;;;;;;;5009381;28;20040;-78
2021/06/22 12:16:57;;;;;;;3.17;1.27;;;;;;;;;;5025567;28;20036;-78
2021/06/22 12:19:23;;;;;;;1.85;1.08;;;;;;;;;;5015240;28;20108;-77
2021/06/22 12:21:50;;;;;;;4.30;1.30;;;;;;;;;;5015127;28;20022;-78
2021/06/22 12:24:18;;;;;;;3.03;1.10;;;;;;;;;;4997152;28;20021;-78
2021/06/22 12:26:45;;;;;;;1.52;1.42;;;;;;;;;;5014499;28;20104;-77
2021/06/22 12:29:21;;;;;;;2.42;1.20;;;;;;;;;;5018340;28;20068;-79
2021/06/22 12:31:52;;;;;;;3.72;1.90;;;;;;;;;;5017605;28;20394;-79
2021/06/22 12:34:18;;;;;;;3.90;1.50;;;;;;;;;;5019292;28;20076;-78
2021/06/22 12:36:44;;;;;;;1.70;1.40;;;;;;;;;;5016338;28;20041;-78
2021/06/22 12:39:11;;;;;;;4.13;1.70;;;;;;;;;;5028091;28;20139;-77
2021/06/22 12:41:37;;;;;;;2.85;1.90;;;;;;;;;;5015146;28;20033;-77
2021/06/22 12:44:08;;;;;;;3.42;1.60;;;;;;;;;;4997349;28;20340;-77
2021/06/22 12:46:38;;;;;;;3.73;1.43;;;;;;;;;;5014610;28;20359;-77
2021/06/22 12:49:06;;;;;;;3.70;1.60;;;;;;;;;;5014112;28;20030;-77
2021/06/22 12:51:33;;;;;;;2.80;1.30;;;;;;;;;;5014848;28;20022;-77
2021/06/22 12:54:00;;;;;;;3.65;1.45;;;;;;;;;;5013197;28;20026;-78
2021/06/22 12:56:27;;;;;;;2.30;1.23;;;;;;;;;;4995867;28;20060;-77
2021/06/22 12:58:58;;;;;;;3.25;1.38;;;;;;;;;;5013086;28;20037;-77
2021/06/22 13:01:30;;;;;;;3.92;1.63;;;;;;;;;;5003400;28;20037;-78
2021/06/22 13:03:56;;;;;;;4.15;1.20;;;;;;;;;;5014363;28;20026;-78
2021/06/22 13:06:29;;;;;;;5.47;1.48;;;;;;;;;;5014472;28;20125;-78
2021/06/22 13:08:57;;;;;;;3.90;1.15;;;;;;;;;;5016075;28;20026;-78
2021/06/22 13:11:28;;;;;;;5.40;1.60;;;;;;;;;;5024983;28;20026;-78
2021/06/22 13:14:05;;;;;;;1.58;1.10;;;;;;;;;;5013584;28;20026;-77
2021/06/22 13:16:31;;;;;;;3.28;1.15;;;;;;;;;;5014096;28;20025;-78
2021/06/22 13:19:00;;;;;;;3.70;1.55;;;;;;;;;;5015155;28;20423;-78
2021/06/22 13:21:45;;;;;;;2.58;1.45;;;;;;;;;;5013558;28;20030;-77
2021/06/22 13:24:11;;;;;;;2.75;1.13;;;;;;;;;;5013445;28;20072;-77
2021/06/22 13:26:38;;;;;;;0.95;0.90;;;;;;;;;;5019446;28;20066;-77
2021/06/22 13:29:04;;;;;;;3.50;1.25;;;;;;;;;;5017362;28;20062;-77
2021/06/22 13:31:30;;;;;;;1.92;1.25;;;;;;;;;;5012678;28;20434;-77
2021/06/22 13:34:09;;;;;;;3.10;0.90;;;;;;;;;;5018607;28;20022;-77
2021/06/22 13:36:36;;;;;;;1.95;0.98;;;;;;;;;;5015283;28;20113;-77
2021/06/22 13:39:13;;;;;;;2.22;1.30;;;;;;;;;;5025389;28;20030;-77
2021/06/22 13:41:47;;;;;;;1.63;1.23;;;;;;;;;;5002408;28;20017;-77
2021/06/22 13:44:14;;;;;;;7.63;2.75;;;;;;;;;;5019791;28;20125;-78
2021/06/22 13:46:40;;;;;;;3.53;1.63;;;;;;;;;;5019807;28;20601;-77
2021/06/22 13:49:06;;;;;;;3.95;1.95;;;;;;;;;;4996489;28;20390;-77
2021/06/22 13:51:33;;;;;;;2.22;1.83;;;;;;;;;;4994206;28;20084;-77
2021/06/22 13:54:10;;;;;;;3.08;1.70;;;;;;;;;;5020965;28;20030;-77
2021/06/22 13:56:37;;;;;;;2.42;2.15;;;;;;;;;;5011841;28;20041;-77
2021/06/22 13:59:03;;;;;;;3.22;2.00;;;;;;;;;;5015442;28;20034;-77
2021/06/22 14:01:29;;;;;;;3.20;1.58;;;;;;;;;;5022694;28;20029;-76
2021/06/22 14:03:57;;;;;;;5.07;2.00;;;;;;;;;;5037041;28;20029;-76
2021/06/22 14:06:23;;;;;;;1.70;1.60;;;;;;;;;;5029374;28;20110;-77
2021/06/22 14:08:49;;;;;;;5.45;2.10;;;;;;;;;;5023897;28;20026;-76
2021/06/22 14:11:15;;;;;;;4.45;1.95;;;;;;;;;;5021553;28;20045;-77
2021/06/22 14:13:42;;;;;;;2.38;1.98;;;;;;;;;;5016056;28;20025;-77
2021/06/22 14:16:08;;;;;;;4.97;2.20;;;;;;;;;;5018811;28;20033;-82
2021/06/22 14:18:35;;;;;;;1.60;1.42;;;;;;;;;;5025158;28;20116;-77
2021/06/22 14:21:01;;;;;;;1.80;1.70;;;;;;;;;;5033862;28;20036;-77
2021/06/22 14:23:27;;;;;;;1.73;1.60;;;;;;;;;;5035440;28;20030;-77
2021/06/22 14:25:54;;;;;;;7.10;2.00;;;;;;;;;;5028070;28;20072;-77
2021/06/22 14:28:22;;;;;;;1.98;1.75;;;;;;;;;;5015431;28;20415;-77
2021/06/22 14:30:50;;;;;;;3.05;1.65;;;;;;;;;;5013964;28;20497;-77
2021/06/22 14:33:20;;;;;;;2.88;1.40;;;;;;;;;;5014915;28;20030;-77
2021/06/22 14:35:46;;;;;;;3.10;1.50;;;;;;;;;;5015687;28;20014;-77
2021/06/22 14:38:13;;;;;;;1.95;1.58;;;;;;;;;;5022949;28;20033;-77
2021/06/22 14:40:39;;;;;;;2.25;1.27;;;;;;;;;;5024062;28;20025;-77
2021/06/22 14:43:06;;;;;;;2.10;1.50;;;;;;;;;;4997394;28;20391;-77
2021/06/22 14:45:32;;;;;;;1.98;1.63;;;;;;;;;;5014883;28;20021;-77
2021/06/22 14:48:00;;;;;;;2.33;1.50;;;;;;;;;;5014704;28;20026;-77
2021/06/22 14:50:27;;;;;;;2.28;1.58;;;;;;;;;;5015020;28;20034;-77
2021/06/22 14:52:53;;;;;;;4.10;1.90;;;;;;;;;;5015408;28;20018;-78
2021/06/22 14:55:35;;;;;;;3.47;2.10;;;;;;;;;;5015776;28;20084;-77
2021/06/22 14:58:03;;;;;;;2.22;2.00;;;;;;;;;;4999885;28;20620;-77
2021/06/22 15:00:30;;;;;;;2.55;1.90;;;;;;;;;;5014870;28;20030;-77
2021/06/22 15:02:57;;;;;;;2.25;1.85;;;;;;;;;;5015228;28;20106;-78
2021/06/22 15:05:23;;;;;;;1.83;1.55;;;;;;;;;;5014787;28;20498;-77
2021/06/22 15:07:50;;;;;;;4.10;1.65;;;;;;;;;;5022138;28;20140;-77
2021/06/22 15:10:16;;;;;;;1.60;1.45;;;;;;;;;;5024450;28;20026;-77
2021/06/22 15:12:42;;;;;;;2.95;1.88;;;;;;;;;;5014975;28;20026;-77
2021/06/22 15:15:08;;;;;;;5.75;3.40;;;;;;;;;;5014610;28;20076;-77
2021/06/22 15:17:36;;;;;;;6.07;2.85;;;;;;;;;;5014721;28;20029;-77
2021/06/22 15:20:03;;;;;;;5.65;2.00;;;;;;;;;;5014407;28;20515;-78
2021/06/22 15:22:29;;;;;;;3.63;1.70;;;;;;;;;;5014854;28;20170;-78
2021/06/22 15:24:57;;;;;;;1.52;1.40;;;;;;;;;;5014275;28;20037;-78
2021/06/22 15:27:23;;;;;;;3.08;1.80;;;;;;;;;;5014534;28;20093;-77
2021/06/22 15:29:49;;;;;;;2.17;1.33;;;;;;;;;;5015478;28;20022;-78
2021/06/22 15:32:15;;;;;;;3.08;1.77;;;;;;;;;;5015333;28;20022;-78
2021/06/22 15:34:41;;;;;;;2.90;1.45;;;;;;;;;;5025596;28;20036;-78
2021/06/22 15:37:08;;;;;;;2.70;1.60;;;;;;;;;;5024425;28;20084;-77
2021/06/22 15:39:34;;;;;;;2.90;1.67;;;;;;;;;;5027290;28;20021;-78
2021/06/22 15:42:00;;;;;;;2.42;1.67;;;;;;;;;;5002339;28;20076;-77
2021/06/22 15:44:26;;;;;;;3.08;1.70;;;;;;;;;;5015939;28;20030;-78
2021/06/22 15:46:52;;;;;;;1.95;1.40;;;;;;;;;;5002761;28;20375;-78
2021/06/22 15:49:22;;;;;;;2.58;1.63;;;;;;;;;;5014574;28;20050;-77
2021/06/22 15:51:48;;;;;;;2.53;1.95;;;;;;;;;;5014887;28;20053;-78
2021/06/22 15:54:14;;;;;;;2.67;1.52;;;;;;;;;;5016614;28;20080;-79
2021/06/22 15:56:40;;;;;;;1.52;1.42;;;;;;;;;;5020178;28;20108;-79
2021/06/22 15:59:08;;;;;;;1.70;1.60;;;;;;;;;;5017095;28;20026;-78
2021/06/22 16:01:35;;;;;;;1.30;1.20;;;;;;;;;;5016022;28;20037;-77
2021/06/22 16:04:01;;;;;;;1.30;1.20;;;;;;;;;;5015885;28;20022;-78
2021/06/22 16:06:27;;;;;;;1.80;1.65;;;;;;;;;;5017279;28;20506;-78
2021/06/22 16:08:53;;;;;;;2.30;1.60;;;;;;;;;;5019341;28;20034;-78
2021/06/22 16:11:19;;;;;;;1.70;1.60;;;;;;;;;;5022405;28;20506;-77
2021/06/22 16:13:45;;;;;;;2.53;2.03;;;;;;;;;;5024654;28;20049;-78
2021/06/22 16:16:12;;;;;;;2.38;1.80;;;;;;;;;;5001752;28;20103;-78
2021/06/22 16:18:38;;;;;;;1.95;1.75;;;;;;;;;;5015947;28;20478;-78
2021/06/22 16:21:04;;;;;;;1.73;1.20;;;;;;;;;;5025337;28;20032;-78
2021/06/22 16:23:30;;;;;;;2.50;2.05;;;;;;;;;;5017835;28;20034;-78
2021/06/22 16:25:56;;;;;;;2.28;1.70;;;;;;;;;;5020787;28;20030;-78
2021/06/22 16:28:22;;;;;;;4.38;1.88;;;;;;;;;;5023586;28;20489;-78
2021/06/22 16:30:49;;;;;;;2.15;1.95;;;;;;;;;;5014717;28;20080;-78
2021/06/22 16:33:17;;;;;;;3.60;2.50;;;;;;;;;;5014924;28;20018;-77
2021/06/22 16:35:43;;;;;;;3.13;2.17;;;;;;;;;;4999176;28;20539;-78
2021/06/22 16:38:09;;;;;;;2.65;1.98;;;;;;;;;;5019937;28;20037;-78
2021/06/22 16:40:35;;;;;;;2.75;2.13;;;;;;;;;;5030407;28;20029;-78
2021/06/22 16:43:06;;;;;;;2.50;2.30;;;;;;;;;;5035770;28;20021;-78
2021/06/22 16:45:32;;;;;;;2.88;2.33;;;;;;;;;;5017945;28;20030;-78
2021/06/22 16:47:59;;;;;;;2.80;2.50;;;;;;;;;;5023285;28;20025;-79
2021/06/22 16:50:25;;;;;;;3.33;3.00;;;;;;;;;;5026717;28;20018;-78
2021/06/22 16:52:51;;;;;;;3.63;2.90;;;;;;;;;;5028944;28;20045;-78
2021/06/22 16:55:18;;;;;;;4.75;4.25;;;;;;;;;;5023312;28;20063;-78
2021/06/22 16:57:45;;;;;;;5.53;3.90;;;;;;;;;;5023714;28;20682;-78
2021/06/22 17:00:12;;;;;;;5.28;4.78;;;;;;;;;;5009887;28;20033;-78
2021/06/22 17:02:39;;;;;;;7.20;5.60;;;;;;;;;;5024426;28;20028;-79
2021/06/22 17:05:05;;;;;;;8.70;5.53;;;;;;;;;;5033072;28;20040;-79
2021/06/22 17:07:31;;;;;;;8.40;5.63;;;;;;;;;;5024439;28;20075;-79
2021/06/22 17:09:58;;;;;;;5.60;5.10;;;;;;;;;;5029428;28;20378;-79
2021/06/22 17:12:24;;;;;;;6.32;5.72;;;;;;;;;;5029006;28;20074;-79
2021/06/22 17:14:50;;;;;;;7.75;6.32;;;;;;;;;;5011381;28;20033;-78
2021/06/22 17:17:16;;;;;;;5.97;5.47;;;;;;;;;;5025006;28;20029;-78
2021/06/22 17:19:42;;;;;;;6.53;5.93;;;;;;;;;;5026426;28;20044;-79
2021/06/22 17:22:08;;;;;;;6.85;6.10;;;;;;;;;;5029310;28;20478;-78
2021/06/22 17:24:34;;;;;;;8.25;6.05;;;;;;;;;;5037730;28;20120;-79
2021/06/22 17:27:00;;;;;;;6.47;5.88;;;;;;;;;;5022612;28;20426;-80
2021/06/22 17:29:26;;;;;;;5.35;4.95;;;;;;;;;;5019346;28;20466;-80
2021/06/22 17:31:52;;;;;;;6.72;5.90;;;;;;;;;;5029961;28;20071;-79
2021/06/22 17:34:18;;;;;;;5.70;5.20;;;;;;;;;;5027522;28;20026;-79
2021/06/22 17:36:44;;;;;;;6.82;5.50;;;;;;;;;;5021261;28;20034;-79
2021/06/22 17:39:10;;;;;;;6.00;5.40;;;;;;;;;;5020185;28;20045;-79
2021/06/22 17:41:36;;;;;;;7.28;5.50;;;;;;;;;;5015617;28;20026;-79
2021/06/22 17:44:03;;;;;;;6.60;5.90;;;;;;;;;;4998147;28;20037;-79
2021/06/22 17:46:29;;;;;;;6.28;5.72;;;;;;;;;;5016044;28;20073;-80
2021/06/22 17:48:55;;;;;;;5.65;4.72;;;;;;;;;;5013769;28;20034;-79
2021/06/22 17:51:21;;;;;;;6.45;5.85;;;;;;;;;;5006540;28;20149;-79
2021/06/22 17:53:47;;;;;;;10.00;5.65;;;;;;;;;;5018841;28;20038;-79
2021/06/22 17:56:13;;;;;;;6.53;5.30;;;;;;;;;;5015670;28;20029;-78
2021/06/22 17:58:39;;;;;;;7.20;5.40;;;;;;;;;;5013835;28;20029;-79
2021/06/22 18:01:06;;;;;;;6.82;5.32;;;;;;;;;;5015878;28;20566;-79
2021/06/22 18:03:32;;;;;;;5.30;4.80;;;;;;;;;;5021886;28;20089;-79
2021/06/22 18:05:58;;;;;;;3.92;3.63;;;;;;;;;;5031009;28;20021;-79
2021/06/22 18:08:24;;;;;;;4.50;4.10;;;;;;;;;;5039484;22;20022;-76
2021/06/22 18:10:50;;;;;;;4.88;4.20;;;;;;;;;;5014461;28;20080;-79
2021/06/22 18:13:16;;;;;;;4.05;3.65;;;;;;;;;;5007012;28;20077;-79
2021/06/22 18:15:43;;;;;;;4.05;3.75;;;;;;;;;;4998484;28;20025;-77
2021/06/22 18:18:09;;;;;;;4.90;2.97;;;;;;;;;;5017651;28;20057;-79
2021/06/22 18:20:36;;;;;;;3.47;3.17;;;;;;;;;;5016773;28;20108;-80
2021/06/22 18:23:02;;;;;;;4.03;3.40;;;;;;;;;;5016684;28;20030;-79
2021/06/22 18:25:28;;;;;;;5.07;3.60;;;;;;;;;;4999711;28;20654;-78
2021/06/22 18:27:54;;;;;;;3.95;3.53;;;;;;;;;;5016837;28;20018;-78
2021/06/22 18:30:21;;;;;;;5.03;3.13;;;;;;;;;;5017267;28;20104;-78
2021/06/22 18:32:48;;;;;;;3.95;3.10;;;;;;;;;;5017131;28;20030;-80
2021/06/22 18:35:16;;;;;;;4.50;3.53;;;;;;;;;;5017419;28;20053;-80
2021/06/22 18:37:42;;;;;;;2.65;2.45;;;;;;;;;;4997945;28;20491;-78
2021/06/22 18:40:13;;;;;;;4.53;3.15;;;;;;;;;;5014469;28;20026;-79
2021/06/22 18:42:40;;;;;;;3.00;2.72;;;;;;;;;;5029496;28;20048;-79
2021/06/22 18:45:06;;;;;;;4.78;3.97;;;;;;;;;;4999269;28;20034;-77
2021/06/22 18:47:32;;;;;;;5.20;3.75;;;;;;;;;;5018056;28;20103;-79
2021/06/22 18:49:58;;;;;;;5.88;4.07;;;;;;;;;;5015179;28;20441;-79
2021/06/22 18:52:24;;;;;;;5.43;4.80;;;;;;;;;;5018028;28;20347;-79
2021/06/22 18:54:50;;;;;;;5.05;3.92;;;;;;;;;;5016684;28;20134;-77
2021/06/22 18:57:16;;;;;;;6.13;4.45;;;;;;;;;;5017250;28;20034;-79
2021/06/22 18:59:42;;;;;;;5.32;4.30;;;;;;;;;;5017098;28;20093;-78
2021/06/22 19:02:08;;;;;;;6.18;4.28;;;;;;;;;;5018024;28;20069;-79
2021/06/22 19:04:34;;;;;;;5.20;3.63;;;;;;;;;;5018656;28;20113;-79
2021/06/22 19:07:01;;;;;;;3.78;3.10;;;;;;;;;;5018644;28;20049;-78
2021/06/22 19:09:27;;;;;;;5.70;4.00;;;;;;;;;;5022517;28;20044;-78
2021/06/22 19:11:53;;;;;;;3.80;3.05;;;;;;;;;;5029639;28;20026;-78
2021/06/22 19:14:19;;;;;;;3.70;3.35;;;;;;;;;;5019593;28;20029;-79
2021/06/22 19:16:49;;;;;;;4.40;3.05;;;;;;;;;;5037701;28;20597;-79
2021/06/22 19:19:15;;;;;;;2.72;2.53;;;;;;;;;;5020434;28;20116;-78
2021/06/22 19:21:41;;;;;;;3.00;2.80;;;;;;;;;;5009053;28;20084;-78
2021/06/22 19:24:12;;;;;;;2.95;2.65;;;;;;;;;;5017294;28;20082;-80
2021/06/22 19:26:39;;;;;;;5.73;3.80;;;;;;;;;;5018611;28;20022;-79
2021/06/22 19:29:05;;;;;;;5.47;3.05;;;;;;;;;;5019343;28;20261;-78
2021/06/22 19:31:31;;;;;;;5.20;3.58;;;;;;;;;;5015303;28;20235;-80
2021/06/22 19:33:57;;;;;;;3.22;2.92;;;;;;;;;;5011987;28;20045;-79
2021/06/22 19:36:23;;;;;;;3.10;2.50;;;;;;;;;;5031526;28;20393;-78
2021/06/22 19:38:49;;;;;;;3.53;2.55;;;;;;;;;;5023068;28;20030;-79
2021/06/22 19:41:16;;;;;;;5.07;2.78;;;;;;;;;;5018222;28;20049;-79
2021/06/22 19:43:43;;;;;;;3.42;2.97;;;;;;;;;;5016744;28;20528;-79
2021/06/22 19:46:09;;;;;;;3.58;3.28;;;;;;;;;;4982879;28;20074;-77
2021/06/22 19:48:35;;;;;;;4.93;3.10;;;;;;;;;;5001510;28;20537;-78
2021/06/22 19:51:01;;;;;;;4.60;3.17;;;;;;;;;;4997916;28;20060;-80
2021/06/22 19:53:27;;;;;;;3.55;2.80;;;;;;;;;;4996987;28;20017;-78
2021/06/22 19:55:53;;;;;;;3.40;2.90;;;;;;;;;;5013567;28;20371;-77
2021/06/22 19:58:19;;;;;;;4.72;2.90;;;;;;;;;;5013061;28;20050;-78
2021/06/22 20:00:45;;;;;;;3.80;3.17;;;;;;;;;;5014826;28;20022;-80
2021/06/22 20:03:11;;;;;;;4.13;3.28;;;;;;;;;;5014702;28;20029;-78
2021/06/22 20:05:37;;;;;;;3.05;2.75;;;;;;;;;;5002515;28;20044;-78
2021/06/22 20:08:04;;;;;;;3.15;2.85;;;;;;;;;;5008528;28;20028;-78
2021/06/22 20:10:30;;;;;;;4.40;2.67;;;;;;;;;;5006574;28;20038;-78
2021/06/22 20:12:56;;;;;;;2.78;2.58;;;;;;;;;;5022393;28;20045;-79
2021/06/22 20:15:22;;;;;;;5.43;3.42;;;;;;;;;;5015711;28;20101;-78
2021/06/22 20:17:48;;;;;;;2.78;2.38;;;;;;;;;;5016136;28;20080;-79
2021/06/22 20:20:14;;;;;;;2.90;2.70;;;;;;;;;;5016373;28;20025;-79
2021/06/22 20:22:43;;;;;;;4.18;2.83;;;;;;;;;;5019568;28;20030;-79
2021/06/22 20:25:09;;;;;;;2.80;2.60;;;;;;;;;;5023243;28;20136;-79
2021/06/22 20:27:35;;;;;;;3.85;3.55;;;;;;;;;;5028842;28;20037;-78
2021/06/22 20:30:01;;;;;;;2.90;2.70;;;;;;;;;;5028774;28;20049;-79
2021/06/22 20:32:28;;;;;;;1.75;1.65;;;;;;;;;;5001601;28;20048;-78
2021/06/22 20:34:54;;;;;;;2.47;2.13;;;;;;;;;;5002715;28;20394;-78
2021/06/22 20:37:20;;;;;;;3.47;3.17;;;;;;;;;;5026048;28;20026;-78
2021/06/22 20:39:46;;;;;;;7.38;5.47;;;;;;;;;;5005844;28;20102;-78
2021/06/22 20:42:12;;;;;;;4.55;4.10;;;;;;;;;;5022730;28;20033;-79
2021/06/22 20:44:38;;;;;;;4.55;4.15;;;;;;;;;;5023445;28;20065;-78